createdAt,value
2023-05-05T00:02:23.010Z,99861.75
2023-05-05T00:04:50.180Z,99862.33
2023-05-05T00:07:17.544Z,99858.20
2023-05-05T00:09:44.937Z,99854.80
2023-05-05T00:12:12.270Z,99851.88
2023-05-05T00:14:39.299Z,99849.06
2023-05-05T00:17:06.731Z,99856.49
2023-05-05T00:19:33.839Z,99859.52
2023-05-05T00:22:00.845Z,99858.52
2023-05-05T00:24:28.104Z,99860.65
2023-05-05T00:26:57.280Z,99852.41
2023-05-05T00:29:24.409Z,99853.58
2023-05-05T00:31:52.524Z,99860.95
2023-05-05T00:34:20.833Z,99855.86
2023-05-05T00:36:48.557Z,99857.81
2023-05-05T00:39:16.937Z,99854.27
2023-05-05T00:41:44.143Z,99861.70
2023-05-05T00:44:11.873Z,99863.39
2023-05-05T00:46:40.790Z,99877.98
2023-05-05T00:49:08.001Z,99866.38
2023-05-05T00:51:35.405Z,99871.04
2023-05-05T00:54:02.820Z,99862.91
2023-05-05T00:56:30.054Z,99865.27
2023-05-05T00:58:57.210Z,99871.88
2023-05-05T01:01:24.895Z,99875.94
2023-05-05T01:03:53.037Z,99881.54
2023-05-05T01:06:46.321Z,99872.19
2023-05-05T01:09:19.853Z,99862.39
2023-05-05T01:11:56.934Z,99866.17
2023-05-05T01:14:43.540Z,99871.04
2023-05-05T01:17:19.785Z,99867.18
2023-05-05T01:19:49.849Z,99866.21
2023-05-05T01:25:42.360Z,99864.67
2023-05-05T01:28:28.908Z,99867.30
2023-05-05T01:31:32.204Z,99863.89
2023-05-05T01:34:04.047Z,99869.25
2023-05-05T01:36:38.346Z,99865.56
2023-05-05T01:39:10.480Z,99864.20
2023-05-05T01:41:42.090Z,99860.63
2023-05-05T01:44:12.206Z,99863.41
2023-05-05T01:46:39.697Z,99866.35
2023-05-05T01:49:10.499Z,99867.44
2023-05-05T01:51:40.211Z,99860.33
2023-05-05T01:54:09.736Z,99867.14
2023-05-05T01:56:40.853Z,99869.77
2023-05-05T01:59:10.324Z,99871.69
2023-05-05T02:01:42.041Z,99865.68
2023-05-05T02:04:10.291Z,99865.84
2023-05-05T02:06:39.799Z,99865.03
2023-05-05T02:09:12.066Z,99865.29
2023-05-05T02:11:40.758Z,99860.84
2023-05-05T02:14:09.080Z,99864.80
2023-05-05T02:16:38.583Z,99861.85
2023-05-05T02:19:06.410Z,99863.73
2023-05-05T02:21:34.594Z,99867.02
2023-05-05T02:24:02.171Z,99868.74
2023-05-05T02:26:33.968Z,99862.49
2023-05-05T02:29:07.680Z,99871.45
2023-05-05T02:31:39.688Z,99875.02
2023-05-05T02:34:09.141Z,99880.48
2023-05-05T02:36:39.764Z,99875.09
2023-05-05T02:39:14.059Z,99869.23
2023-05-05T02:41:45.324Z,99867.17
2023-05-05T02:44:23.925Z,99877.27
2023-05-05T02:46:51.962Z,99882.85
2023-05-05T02:49:19.619Z,99879.52
2023-05-05T02:51:47.057Z,99877.14
2023-05-05T02:54:22.594Z,99879.42
2023-05-05T02:56:51.686Z,99883.56
2023-05-05T02:59:34.403Z,99880.59
2023-05-05T03:02:16.569Z,99883.52
2023-05-05T03:04:53.074Z,99881.75
2023-05-05T03:07:50.288Z,99879.94
2023-05-05T03:10:22.370Z,99882.80
2023-05-05T03:12:58.599Z,99880.00
2023-05-05T03:15:45.254Z,99888.04
2023-05-05T03:18:15.702Z,99896.23
2023-05-05T03:20:45.646Z,99896.08
2023-05-05T03:23:14.807Z,99886.52
2023-05-05T03:25:43.601Z,99895.20
2023-05-05T03:28:12.719Z,99895.55
2023-05-05T03:30:41.264Z,99887.64
2023-05-05T03:33:11.483Z,99895.46
2023-05-05T03:35:39.367Z,99897.75
2023-05-05T03:38:07.896Z,99897.13
2023-05-05T03:40:43.446Z,99902.89
2023-05-05T03:43:12.324Z,99902.57
2023-05-05T03:45:39.462Z,99896.08
2023-05-05T03:48:07.436Z,99890.23
2023-05-05T03:50:35.047Z,99896.93
2023-05-05T03:53:03.234Z,99896.80
2023-05-05T03:55:30.408Z,99892.33
2023-05-05T03:57:57.972Z,99892.17
2023-05-05T04:00:25.271Z,99890.79
2023-05-05T04:02:52.760Z,99890.82
2023-05-05T04:05:22.698Z,99896.16
2023-05-05T04:07:49.952Z,99889.23
2023-05-05T04:10:17.256Z,99883.75
2023-05-05T04:12:44.710Z,99883.54
2023-05-05T04:15:12.120Z,99890.43
2023-05-05T04:17:40.566Z,99898.18
2023-05-05T04:20:10.004Z,99889.51
2023-05-05T04:22:37.465Z,99892.86
2023-05-05T04:25:05.333Z,99899.27
2023-05-05T04:27:33.583Z,99899.17
2023-05-05T04:30:01.461Z,99903.09
2023-05-05T04:32:31.416Z,99896.83
2023-05-05T04:34:59.131Z,99896.86
2023-05-05T04:37:26.630Z,99901.44
2023-05-05T04:39:54.145Z,99902.13
2023-05-05T04:42:21.717Z,99897.52
2023-05-05T04:44:48.714Z,99906.03
2023-05-05T04:47:16.858Z,99912.48
2023-05-05T04:49:45.090Z,99909.13
2023-05-05T04:52:16.079Z,99906.20
2023-05-05T04:54:43.426Z,99914.27
2023-05-05T04:57:10.723Z,99907.66
2023-05-05T04:59:37.821Z,99916.68
2023-05-05T05:02:05.351Z,99916.91
2023-05-05T05:04:32.849Z,99921.65
2023-05-05T05:07:01.501Z,99921.71
2023-05-05T05:09:28.824Z,99911.77
2023-05-05T05:12:01.089Z,99917.64
2023-05-05T05:14:28.304Z,99932.57
2023-05-05T05:19:41.237Z,99921.74
2023-05-05T05:22:09.241Z,99919.10
2023-05-05T05:24:38.577Z,99926.90
2023-05-05T05:27:10.021Z,99920.13
2023-05-05T05:29:38.441Z,99932.34
2023-05-05T05:32:06.187Z,99929.02
2023-05-05T05:34:33.727Z,99925.34
2023-05-05T05:37:01.491Z,99929.35
2023-05-05T05:39:28.824Z,99939.11
2023-05-05T05:41:56.266Z,99940.27
2023-05-05T05:44:23.601Z,99942.38
2023-05-05T05:46:51.225Z,99937.13
2023-05-05T05:49:18.337Z,99933.80
2023-05-05T05:51:45.707Z,99934.56
2023-05-05T05:54:13.845Z,99932.92
2023-05-05T05:56:41.765Z,99942.41
2023-05-05T05:59:10.326Z,99944.64
2023-05-05T06:01:38.466Z,99934.14
2023-05-05T06:04:05.769Z,99935.50
2023-05-05T06:06:32.852Z,99931.83
2023-05-05T06:09:01.225Z,99932.07
2023-05-05T06:11:29.529Z,99930.84
2023-05-05T06:13:56.669Z,99937.27
2023-05-05T06:16:23.861Z,99937.42
2023-05-05T06:18:51.150Z,99939.29
2023-05-05T06:21:20.828Z,99944.85
2023-05-05T06:23:48.232Z,99939.39
2023-05-05T06:26:15.618Z,99941.41
2023-05-05T06:28:43.091Z,99944.06
2023-05-05T06:31:10.430Z,99939.57
2023-05-05T06:33:37.599Z,99939.77
2023-05-05T06:36:04.961Z,99943.00
2023-05-05T06:38:32.390Z,99947.34
2023-05-05T06:40:59.430Z,99935.98
2023-05-05T06:43:27.242Z,99935.10
2023-05-05T06:45:57.756Z,99935.81
2023-05-05T06:48:24.911Z,99939.13
2023-05-05T06:50:52.360Z,99941.98
2023-05-05T06:53:19.460Z,99938.88
2023-05-05T06:55:47.437Z,99938.65
2023-05-05T06:58:14.513Z,99933.45
2023-05-05T07:00:42.285Z,99930.54
2023-05-05T07:03:09.450Z,99938.15
2023-05-05T07:05:37.105Z,99936.27
2023-05-05T07:08:04.320Z,99934.85
2023-05-05T07:10:34.175Z,99935.63
2023-05-05T07:13:01.508Z,99937.45
2023-05-05T07:15:29.598Z,99944.15
2023-05-05T07:17:57.856Z,99937.17
2023-05-05T07:20:25.405Z,99948.88
2023-05-05T07:22:52.582Z,99942.29
2023-05-05T07:25:20.066Z,99951.39
2023-05-05T07:27:47.196Z,99947.44
2023-05-05T07:30:17.305Z,99951.02
2023-05-05T07:32:46.404Z,99950.05
2023-05-05T07:35:13.771Z,99948.42
2023-05-05T07:37:40.982Z,99947.32
2023-05-05T07:40:09.154Z,99947.62
2023-05-05T07:42:36.436Z,99942.96
2023-05-05T07:45:04.706Z,99937.03
2023-05-05T07:47:32.283Z,99936.11
2023-05-05T07:50:01.403Z,99941.71
2023-05-05T07:52:44.097Z,99939.65
2023-05-05T07:55:17.128Z,99931.02
2023-05-05T07:57:44.198Z,99938.12
2023-05-05T08:00:13.620Z,99937.29
2023-05-05T08:02:41.674Z,99936.98
2023-05-05T08:05:09.494Z,99945.92
2023-05-05T08:07:41.133Z,99942.58
2023-05-05T08:10:11.008Z,99942.05
2023-05-05T08:12:38.716Z,99933.80
2023-05-05T08:15:07.128Z,99935.27
2023-05-05T08:17:58.016Z,99934.77
2023-05-05T08:20:28.964Z,99926.00
2023-05-05T08:22:56.558Z,99933.88
2023-05-05T08:25:23.665Z,99933.36
2023-05-05T08:27:50.819Z,99931.82
2023-05-05T08:30:21.349Z,99932.38
2023-05-05T08:32:48.699Z,99934.16
2023-05-05T08:35:16.224Z,99929.13
2023-05-05T08:37:43.508Z,99937.17
2023-05-05T08:40:14.626Z,99932.09
2023-05-05T08:42:42.360Z,99922.66
2023-05-05T08:45:10.993Z,99931.63
2023-05-05T08:47:39.418Z,99925.10
2023-05-05T08:50:10.736Z,99925.68
2023-05-05T08:52:49.173Z,99929.29
2023-05-05T08:55:24.573Z,99932.00
2023-05-05T08:57:54.973Z,99925.61
2023-05-05T09:00:23.230Z,99923.88
2023-05-05T09:02:51.092Z,99932.09
2023-05-05T09:05:18.605Z,99927.50
2023-05-05T09:07:47.487Z,99926.20
2023-05-05T09:10:14.889Z,99922.98
2023-05-05T09:12:42.715Z,99926.77
2023-05-05T09:15:12.901Z,99929.65
2023-05-05T09:17:41.132Z,99921.14
2023-05-05T09:20:13.490Z,99921.45
2023-05-05T09:22:43.637Z,99926.15
2023-05-05T09:25:15.945Z,99924.77
2023-05-05T09:27:48.323Z,99928.35
2023-05-05T09:30:18.041Z,99930.52
2023-05-05T09:32:46.606Z,99923.24
2023-05-05T09:35:14.271Z,99930.31
2023-05-05T09:37:42.483Z,99925.27
2023-05-05T09:40:11.497Z,99923.25
2023-05-05T09:42:40.230Z,99928.67
2023-05-05T09:45:19.999Z,99923.50
2023-05-05T09:47:48.894Z,99922.26
2023-05-05T09:50:19.165Z,99919.81
2023-05-05T09:52:57.756Z,99912.07
2023-05-05T09:55:26.084Z,99908.05
2023-05-05T09:57:53.921Z,99913.73
2023-05-05T10:00:21.443Z,99913.05
2023-05-05T10:02:48.768Z,99915.80
2023-05-05T10:05:18.738Z,99911.47
2023-05-05T10:07:47.820Z,99912.02
2023-05-05T10:10:17.629Z,99908.40
2023-05-05T10:12:47.984Z,99908.88
2023-05-05T10:15:16.052Z,99902.55
2023-05-05T10:20:21.292Z,99891.86
2023-05-05T10:22:53.489Z,99892.80
2023-05-05T10:25:30.414Z,99897.16
2023-05-05T10:28:00.665Z,99890.44
2023-05-05T10:30:32.363Z,99884.41
2023-05-05T10:36:01.718Z,99879.10
2023-05-05T10:38:33.930Z,99884.14
2023-05-05T10:41:02.443Z,99882.96
2023-05-05T10:43:31.600Z,99878.25
2023-05-05T10:45:59.796Z,99875.57
2023-05-05T10:48:39.776Z,99872.17
2023-05-05T10:51:39.302Z,99869.62
2023-05-05T10:54:22.712Z,99871.99
2023-05-05T10:56:51.548Z,99867.71
2023-05-05T10:59:48.562Z,99871.34
2023-05-05T11:02:29.825Z,99872.41
2023-05-05T11:05:23.895Z,99875.86
2023-05-05T11:07:51.870Z,99870.16
2023-05-05T11:10:20.865Z,99873.52
2023-05-05T11:12:55.234Z,99867.41
2023-05-05T11:15:31.470Z,99871.98
2023-05-05T11:18:06.656Z,99869.62
2023-05-05T11:20:40.614Z,99862.41
2023-05-05T11:23:10.682Z,99862.92
2023-05-05T11:25:38.987Z,99865.59
2023-05-05T11:28:11.370Z,99858.14
2023-05-05T11:30:58.140Z,99855.02
2023-05-05T11:33:32.566Z,99849.73
2023-05-05T11:36:05.106Z,99853.34
2023-05-05T11:38:36.453Z,99852.98
2023-05-05T11:41:34.007Z,99854.05
2023-05-05T11:44:11.441Z,99854.29
2023-05-05T11:46:51.155Z,99845.88
2023-05-05T11:49:32.846Z,99839.33
2023-05-05T11:52:01.273Z,99839.34
2023-05-05T11:54:29.601Z,99835.89
2023-05-05T11:57:18.240Z,99834.90
2023-05-05T11:59:53.896Z,99829.36
2023-05-05T12:02:22.435Z,99828.45
2023-05-05T12:04:50.900Z,99830.15
2023-05-05T12:07:19.435Z,99834.64
2023-05-05T12:09:48.628Z,99830.95
2023-05-05T12:12:16.927Z,99832.67
2023-05-05T12:14:47.665Z,99835.23
2023-05-05T12:17:14.740Z,99831.02
2023-05-05T12:20:00.222Z,99830.71
2023-05-05T12:22:27.599Z,99825.45
2023-05-05T12:24:55.576Z,99821.27
2023-05-05T12:27:23.944Z,99815.63
2023-05-05T12:29:51.803Z,99815.44
2023-05-05T12:32:23.950Z,99809.38
2023-05-05T12:34:59.502Z,99806.52
2023-05-05T12:37:27.667Z,99802.83
2023-05-05T12:39:55.220Z,99804.30
2023-05-05T12:42:26.393Z,99803.58
2023-05-05T12:44:53.673Z,99798.15
2023-05-05T12:47:33.775Z,99802.10
2023-05-05T12:50:03.136Z,99803.52
2023-05-05T12:52:44.465Z,99805.67
2023-05-05T12:55:12.741Z,99804.94
2023-05-05T12:58:00.471Z,99801.09
2023-05-05T13:00:29.400Z,99801.39
2023-05-05T13:02:57.087Z,99801.38
2023-05-05T13:05:36.795Z,99800.59
2023-05-05T13:08:04.206Z,99799.57
2023-05-05T13:10:31.491Z,99799.04
2023-05-05T13:12:58.932Z,99795.81
2023-05-05T13:15:26.270Z,99798.07
2023-05-05T13:18:01.314Z,99797.19
2023-05-05T13:20:28.863Z,99799.98
2023-05-05T13:22:55.948Z,99796.48
2023-05-05T13:25:23.468Z,99797.60
2023-05-05T13:27:50.774Z,99801.15
2023-05-05T13:30:17.928Z,99795.06
2023-05-05T13:32:44.975Z,99795.04
2023-05-05T13:35:14.693Z,99795.58
2023-05-05T13:37:44.527Z,99794.22
2023-05-05T13:40:13.806Z,99795.50
2023-05-05T13:42:41.249Z,99798.63
2023-05-05T13:45:08.930Z,99790.64
2023-05-05T13:47:37.072Z,99786.44
2023-05-05T13:50:04.699Z,99793.66
2023-05-05T13:52:33.299Z,99784.27
2023-05-05T13:55:01.400Z,99787.72
2023-05-05T13:57:28.825Z,99785.14
2023-05-05T13:59:56.323Z,99785.79
2023-05-05T14:02:23.961Z,99783.08
2023-05-05T14:04:51.264Z,99773.32
2023-05-05T14:07:18.356Z,99775.65
2023-05-05T14:09:45.773Z,99777.88
2023-05-05T14:12:13.038Z,99772.84
2023-05-05T14:14:40.322Z,99768.36
2023-05-05T14:17:07.503Z,99763.30
2023-05-05T14:19:34.865Z,99767.17
2023-05-05T14:22:01.920Z,99768.42
2023-05-05T14:24:29.174Z,99767.53
2023-05-05T14:26:57.201Z,99764.95
2023-05-05T14:29:24.637Z,99764.61
2023-05-05T14:31:51.815Z,99760.14
2023-05-05T14:34:19.034Z,99763.66
2023-05-05T14:36:46.345Z,99762.23
2023-05-05T14:39:13.480Z,99766.80
2023-05-05T14:41:41.081Z,99771.75
2023-05-05T14:44:08.141Z,99764.34
2023-05-05T14:46:35.696Z,99767.34
2023-05-05T14:49:02.800Z,99762.73
2023-05-05T14:51:30.238Z,99761.56
2023-05-05T14:53:57.357Z,99760.41
2023-05-05T14:56:26.714Z,99765.64
2023-05-05T14:58:54.373Z,99768.14
2023-05-05T15:01:21.945Z,99766.95
2023-05-05T15:03:49.252Z,99769.77
2023-05-05T15:06:16.684Z,99762.13
2023-05-05T15:08:44.063Z,99767.23
2023-05-05T15:11:11.291Z,99763.98
2023-05-05T15:13:41.722Z,99774.02
2023-05-05T15:16:08.997Z,99764.44
2023-05-05T15:18:36.823Z,99770.07
2023-05-05T15:21:04.785Z,99765.54
2023-05-05T15:23:32.794Z,99772.70
2023-05-05T15:25:59.872Z,99773.75
2023-05-05T15:28:27.206Z,99774.13
2023-05-05T15:30:55.000Z,99780.25
2023-05-05T15:33:23.142Z,99783.77
2023-05-05T15:35:50.210Z,99782.16
2023-05-05T15:38:17.472Z,99784.86
2023-05-05T15:40:48.267Z,99791.70
2023-05-05T15:43:16.645Z,99775.11
2023-05-05T15:45:44.229Z,99773.70
2023-05-05T15:48:11.606Z,99781.05
2023-05-05T15:50:39.004Z,99779.37
2023-05-05T15:53:06.137Z,99771.66
2023-05-05T15:55:33.490Z,99780.27
2023-05-05T15:58:00.572Z,99775.80
2023-05-05T16:00:28.300Z,99775.34
2023-05-05T16:02:55.671Z,99780.04
2023-05-05T16:05:23.397Z,99779.27
2023-05-05T16:07:51.931Z,99778.35
2023-05-05T16:10:20.544Z,99785.19
2023-05-05T16:12:47.812Z,99783.10
2023-05-05T16:15:15.000Z,99785.31
2023-05-05T16:17:42.054Z,99789.83
2023-05-05T16:20:09.716Z,99781.41
2023-05-05T16:22:37.171Z,99785.55
2023-05-05T16:25:04.966Z,99782.44
2023-05-05T16:27:31.985Z,99791.29
2023-05-05T16:29:59.913Z,99787.67
2023-05-05T16:32:28.270Z,99786.23
2023-05-05T16:34:55.379Z,99782.75
2023-05-05T16:37:22.687Z,99785.84
2023-05-05T16:39:49.938Z,99788.77
2023-05-05T16:42:17.079Z,99790.30
2023-05-05T16:44:44.268Z,99791.42
2023-05-05T16:47:11.316Z,99791.44
2023-05-05T16:49:38.741Z,99791.52
2023-05-05T16:52:06.454Z,99789.55
2023-05-05T16:54:33.661Z,99792.23
2023-05-05T16:57:02.199Z,99791.80
2023-05-05T16:59:31.509Z,99790.81
2023-05-05T17:01:58.838Z,99791.41
2023-05-05T17:04:26.558Z,99788.08
2023-05-05T17:06:55.508Z,99792.70
2023-05-05T17:09:25.365Z,99795.83
2023-05-05T17:11:52.712Z,99797.08
2023-05-05T17:14:20.563Z,99794.99
2023-05-05T17:16:47.527Z,99794.41
2023-05-05T17:19:14.729Z,99793.11
2023-05-05T17:21:43.354Z,99797.45
2023-05-05T17:24:11.542Z,99798.83
2023-05-05T17:26:39.811Z,99798.16
2023-05-05T17:29:07.847Z,99795.91
2023-05-05T17:31:34.900Z,99796.77
2023-05-05T17:34:02.000Z,99798.16
2023-05-05T17:36:29.509Z,99801.13
2023-05-05T17:38:56.579Z,99802.67
2023-05-05T17:41:25.674Z,99809.33
2023-05-05T17:43:53.286Z,99809.02
2023-05-05T17:46:20.669Z,99812.71
2023-05-05T17:48:48.308Z,99816.25
2023-05-05T17:51:15.916Z,99819.00
2023-05-05T17:53:43.176Z,99817.23
2023-05-05T17:56:10.313Z,99823.46
2023-05-05T17:58:37.782Z,99823.80
2023-05-05T18:01:09.170Z,99826.72
2023-05-05T18:03:37.896Z,99835.44
2023-05-05T18:06:06.937Z,99833.17
2023-05-05T18:08:33.935Z,99837.16
2023-05-05T18:11:02.170Z,99841.71
2023-05-05T18:13:29.507Z,99842.46
2023-05-05T18:15:56.905Z,99848.55
2023-05-05T18:18:24.180Z,99848.38
2023-05-05T18:20:51.607Z,99850.13
2023-05-05T18:23:19.513Z,99856.85
2023-05-05T18:25:46.760Z,99855.87
2023-05-05T18:28:14.131Z,99853.47
2023-05-05T18:30:41.470Z,99859.14
2023-05-05T18:33:08.646Z,99862.70
2023-05-05T18:35:36.637Z,99860.60
2023-05-05T18:38:04.159Z,99855.60
2023-05-05T18:40:31.843Z,99858.91
2023-05-05T18:42:59.105Z,99852.67
2023-05-05T18:45:26.461Z,99860.63
2023-05-05T18:47:53.729Z,99854.78
2023-05-05T18:50:21.155Z,99860.89
2023-05-05T18:52:56.104Z,99856.92
2023-05-05T18:55:24.563Z,99851.81
2023-05-05T18:57:51.709Z,99852.10
2023-05-05T19:00:20.927Z,99859.40
2023-05-05T19:02:48.294Z,99866.73
2023-05-05T19:05:15.567Z,99862.79
2023-05-05T19:07:48.241Z,99873.34
2023-05-05T19:10:16.006Z,99868.80
2023-05-05T19:12:43.421Z,99888.35
2023-05-05T19:15:11.719Z,99869.74
2023-05-05T19:17:39.342Z,99881.42
2023-05-05T19:20:07.965Z,99876.05
2023-05-05T19:22:35.498Z,99879.26
2023-05-05T19:25:06.071Z,99877.58
2023-05-05T19:27:34.317Z,99881.84
2023-05-05T19:30:01.804Z,99884.88
2023-05-05T19:32:29.352Z,99876.67
2023-05-05T19:34:56.664Z,99880.79
2023-05-05T19:37:24.402Z,99881.34
2023-05-05T19:39:51.799Z,99894.71
2023-05-05T19:42:19.529Z,99891.58
2023-05-05T19:44:46.771Z,99883.91
2023-05-05T19:47:14.310Z,99876.86
2023-05-05T19:49:41.739Z,99879.75
2023-05-05T19:52:08.732Z,99892.35
2023-05-05T19:54:37.520Z,99885.06
2023-05-05T19:57:05.537Z,99880.95
2023-05-05T19:59:33.822Z,99882.88
2023-05-05T20:02:01.249Z,99891.52
2023-05-05T20:04:28.657Z,99884.33
2023-05-05T20:06:55.769Z,99887.45
2023-05-05T20:09:22.912Z,99896.38
2023-05-05T20:11:50.091Z,99897.26
2023-05-05T20:14:17.161Z,99895.27
2023-05-05T20:16:45.159Z,99903.13
2023-05-05T20:19:12.375Z,99898.09
2023-05-05T20:21:40.300Z,99898.30
2023-05-05T20:24:07.916Z,99898.60
2023-05-05T20:26:35.206Z,99891.75
2023-05-05T20:29:02.645Z,99891.02
2023-05-05T20:31:30.618Z,99906.05
2023-05-05T20:33:58.331Z,99912.67
2023-05-05T20:36:26.832Z,99917.59
2023-05-05T20:38:54.228Z,99914.80
2023-05-05T20:41:21.530Z,99916.30
2023-05-05T20:43:48.616Z,99936.55
2023-05-05T20:46:16.568Z,99932.91
2023-05-05T20:48:44.710Z,99934.58
2023-05-05T20:51:11.888Z,99941.17
2023-05-05T20:53:39.115Z,99958.10
2023-05-05T20:56:08.661Z,99931.90
2023-05-05T20:58:36.484Z,99943.70
2023-05-05T21:01:03.846Z,99941.63
2023-05-05T21:03:30.974Z,99939.02
2023-05-05T21:06:00.801Z,99945.50
2023-05-05T21:08:30.110Z,99946.10
2023-05-05T21:10:57.204Z,99947.45
2023-05-05T21:13:24.515Z,99933.81
2023-05-05T21:15:52.107Z,99943.66
2023-05-05T21:18:19.174Z,99955.09
2023-05-05T21:20:47.308Z,99946.06
2023-05-05T21:23:16.873Z,99955.36
2023-05-05T21:25:44.075Z,99983.15
2023-05-05T21:28:11.221Z,99958.13
2023-05-05T21:30:38.710Z,99958.91
2023-05-05T21:33:05.925Z,99950.98
2023-05-05T21:35:33.237Z,99954.69
2023-05-05T21:38:00.475Z,99959.21
2023-05-05T21:40:27.448Z,99954.22
2023-05-05T21:42:54.820Z,99953.27
2023-05-05T21:45:22.205Z,99961.79
2023-05-05T21:47:49.323Z,99961.77
2023-05-05T21:50:16.405Z,99978.66
2023-05-05T21:52:43.744Z,99982.38
2023-05-05T21:55:11.379Z,99974.66
2023-05-05T21:57:38.715Z,99967.95
2023-05-05T22:00:08.398Z,99981.70
2023-05-05T22:02:39.499Z,99978.30
2023-05-05T22:05:07.736Z,99970.78
2023-05-05T22:07:35.108Z,99969.10
2023-05-05T22:10:03.781Z,99966.39
2023-05-05T22:12:31.150Z,99985.80
2023-05-05T22:14:58.187Z,99984.45
2023-05-05T22:17:25.408Z,99973.12
2023-05-05T22:19:53.134Z,99977.27
2023-05-05T22:22:20.260Z,99977.52
2023-05-05T22:24:47.214Z,99979.15
2023-05-05T22:27:14.996Z,99962.39
2023-05-05T22:29:42.374Z,99970.55
2023-05-05T22:32:09.652Z,99970.23
2023-05-05T22:34:36.971Z,99973.68
2023-05-05T22:37:04.275Z,99981.02
2023-05-05T22:39:31.464Z,99972.52
2023-05-05T22:41:59.067Z,99979.27
2023-05-05T22:44:26.120Z,99979.69
2023-05-05T22:46:53.650Z,99968.59
2023-05-05T22:49:21.314Z,99979.15
2023-05-05T22:51:48.741Z,99983.83
2023-05-05T22:54:16.182Z,99971.34
2023-05-05T22:56:43.431Z,99979.34
2023-05-05T22:59:10.654Z,99975.38
2023-05-05T23:01:38.759Z,99979.19
2023-05-05T23:04:06.623Z,99979.45
2023-05-05T23:06:33.757Z,99982.40
2023-05-05T23:09:01.029Z,99995.34
2023-05-05T23:11:28.416Z,99980.63
2023-05-05T23:13:55.584Z,99979.18
2023-05-05T23:16:22.987Z,99980.13
2023-05-05T23:18:50.464Z,99990.33
2023-05-05T23:21:17.489Z,99995.94
2023-05-05T23:23:44.674Z,100001.34
2023-05-05T23:26:13.863Z,99979.08
2023-05-05T23:28:40.972Z,99990.35
2023-05-05T23:31:09.468Z,99975.35
2023-05-05T23:35:46.093Z,99993.35
2023-05-05T23:38:13.250Z,100001.10
2023-05-05T23:40:40.407Z,100010.02
2023-05-05T23:43:07.935Z,100000.98
2023-05-05T23:45:34.933Z,99999.21
2023-05-05T23:48:02.189Z,99999.95
2023-05-05T23:50:30.639Z,100002.18
2023-05-05T23:52:58.041Z,99997.30
2023-05-05T23:55:25.254Z,99995.22
2023-05-05T23:57:53.368Z,99994.58
